• Join FlightAware (Why Join?)
  • Login
  • US Flag 
06:31AM EDT


 

Airport Tracker/Info


-or-


 

Live Flight TrackerFlight Track Log ✈ N6197D ✈ 01-May-2012 ✈ KFCM - KFSD

Flight Track Log - Related Links

Times and Time Zones

All times are in EDT time to prevent confusion due to time zone crossing. See the N6197D flight status page for this flight to view local times or setup timezone preferences in your user account.

Time Position Orientation Groundspeed Altitude Reporting Facility
EDT Latitude Longitude Course Direction KTS MPH feet Rate Location/Type
03:40PM 44.8078 -93.4408 231° Southwest 154 177 2,400  Level FAA TRACON SMA TRACON (SMA)
03:40PM 44.7839 -93.4822 235° Southwest 203 234 4,500 2,880 Climbing FAA TRACON SMA TRACON (SMA)
03:41PM 44.7642 -93.5217 230° Southwest 199 229 6,300 1,740 Climbing FAA TRACON SMA TRACON (SMA)
03:42PM 44.7386 -93.5653 232° Southwest 214 246 6,900 420 Climbing FAA TRACON SMA TRACON (SMA)
03:42PM 44.7100 -93.6172 232° Southwest 245 282 6,900 240 Level FAA TRACON SMA TRACON (SMA)
03:43PM 44.6814 -93.6686 230° Southwest 241 277 7,300 1,500 Climbing FAA TRACON SMA TRACON (SMA)
03:44PM 44.6569 -93.7100 233° Southwest 220 253 8,900 2,640 Climbing FAA TRACON SMA TRACON (SMA)
03:44PM 44.6342 -93.7531 233° Southwest 195 224 10,800 1,440 Climbing FAA TRACON SMA TRACON (SMA)
03:45PM 44.6081 -93.8008 230° Southwest 231 266 10,900 60 Climbing FAA TRACON SMA TRACON (SMA)
03:46PM 44.5764 -93.8539 235° Southwest 257 296 10,900  Level FAA TRACON SMA TRACON (SMA)
03:46PM 44.5508 -93.9050 234° Southwest 261 300 10,900  Level FAA TRACON SMA TRACON (SMA)
03:47PM 44.5242 -93.9556 247° West 261 300 10,900 660 Level FAA TRACON SMA TRACON (SMA)
03:48PM 44.5047 -94.0192 245° Southwest 254 292 11,800 1,800 Climbing FAA TRACON SMA TRACON (SMA)
03:48PM 44.4858 -94.0769 249° West 233 268 13,300 2,100 Climbing FAA TRACON SMA TRACON (SMA)
03:49PM 44.4717 -94.1275 243° Southwest 226 260 14,700 2,100 Climbing FAA TRACON SMA TRACON (SMA)
03:50PM 44.4528 -94.1800 245° Southwest 219 252 16,200 2,100 Climbing FAA TRACON SMA TRACON (SMA)
03:50PM 44.4378 -94.2258 247° West 210 242 17,500 2,220 Climbing FAA TRACON SMA TRACON (SMA)
03:51PM 44.4219 -94.2778 246° West 209 241 19,100 2,040 Climbing FAA TRACON SMA TRACON (SMA)
03:52PM 44.4047 -94.3314 247° West 220 253 20,300 1,500 Climbing FAA TRACON SMA TRACON (SMA)
03:52PM 44.3897 -94.3811 241° Southwest 226 260 21,200 1,320 Climbing FAA TRACON SMA TRACON (SMA)
03:53PM 44.3728 -94.4233 246° West 221 254 22,000 480 Climbing Minneapolis Center
03:54PM 44.3428 -94.5156 244° Southwest 246 283 22,000  Level Minneapolis Center
03:55PM 44.3083 -94.6136 248° West 280 322 22,000  Level Minneapolis Center
03:56PM 44.2781 -94.7200 245° Southwest 287 330 22,000  Level Minneapolis Center
03:57PM 44.2436 -94.8236 245° Southwest 298 343 22,000  Level Minneapolis Center
03:58PM 44.2067 -94.9328 245° Southwest 303 349 22,000  Level Minneapolis Center
03:59PM 44.1719 -95.0361 245° Southwest 303 349 22,000  Level Minneapolis Center
04:00PM 44.1328 -95.1508 245° Southwest 303 349 22,000  Level Minneapolis Center
04:01PM 44.0978 -95.2567 245° Southwest 298 343 22,000  Level Minneapolis Center
04:02PM 44.0628 -95.3594 245° Southwest 298 343 22,000  Level Minneapolis Center
04:03PM 44.0275 -95.4650 245° Southwest 298 343 22,000  Level Minneapolis Center
04:04PM 43.9922 -95.5678 244° Southwest 298 343 22,000  Level Minneapolis Center
04:05PM 43.9592 -95.6617 244° Southwest 298 343 22,000  Level Minneapolis Center
04:06PM 43.9236 -95.7642 245° Southwest 298 343 22,000  Level Minneapolis Center
04:07PM 43.8881 -95.8692 246° West 298 343 22,000 -120 Level Minneapolis Center
04:08PM 43.8547 -95.9714 243° Southwest 298 343 21,800 -1,440 Descending Minneapolis Center
04:09PM 43.8214 -96.0619 247° West 287 330 19,200 -2,460 Descending Minneapolis Center
04:10PM 43.7897 -96.1669 252° West 280 322 16,900 -2,280 Descending Minneapolis Center
04:11PM 43.7686 -96.2550 247° West 267 307 14,700 -2,760 Descending Minneapolis Center
04:12PM 43.7414 -96.3428 245° Southwest 256 295 11,400 -3,060 Descending Minneapolis Center
04:13PM 43.7122 -96.4275 246° West 246 283 8,600 -2,820 Descending Minneapolis Center
04:14PM 43.6869 -96.5067 247° West 241 277 5,800 -2,100 Descending Minneapolis Center
04:15PM 43.6642 -96.5800 246° West 236 272 4,400 -1,380 Descending Minneapolis Center
04:16PM 43.6392 -96.6561 243° Southwest 231 266 3,100 -1,200 Descending Minneapolis Center
04:17PM 43.6186 -96.7125 225° Southwest 205 236 2,100 -780 Descending Minneapolis Center
04:18PM 43.5906 -96.7508 225° Southwest 154 177 1,600 -540 Descending Minneapolis Center